Time;durP1;ratioP1;P1;durP2;ratioP2;P2;SDS_P1;SDS_P2;PMS_P1;PMS_P2;Temp;Humidity;BMP_temperature;BMP_pressure;BME280_temperature;BME280_humidity;BME280_pressure;Samples;Min_cycle;Max_cycle;Signal;HPM_P1;HPM_P2
2023/12/21 00:00:41;;;;;;;7.80;4.53;;;;;;;;;;2066493;28;20035;-75
2023/12/21 00:02:00;;;;;;;6.50;4.32;;;;;;;;;;2071622;28;20030;-74
2023/12/21 00:03:19;;;;;;;5.93;4.18;;;;;;;;;;2072280;28;20678;-75
2023/12/21 00:04:38;;;;;;;6.40;4.20;;;;;;;;;;2074972;28;20026;-76
2023/12/21 00:05:57;;;;;;;5.00;4.50;;;;;;;;;;2069248;28;20022;-74
2023/12/21 00:07:16;;;;;;;5.55;4.65;;;;;;;;;;2066212;28;20027;-75
2023/12/21 00:08:35;;;;;;;6.40;4.20;;;;;;;;;;2063149;28;20026;-74
2023/12/21 00:09:56;;;;;;;8.07;4.53;;;;;;;;;;2065555;28;20090;-74
2023/12/21 00:11:15;;;;;;;7.80;4.38;;;;;;;;;;2065207;28;20035;-74
2023/12/21 00:12:34;;;;;;;6.18;4.55;;;;;;;;;;2061490;28;20034;-74
2023/12/21 00:13:53;;;;;;;8.45;4.65;;;;;;;;;;2062922;28;20065;-74
2023/12/21 00:15:13;;;;;;;5.68;4.05;;;;;;;;;;2062410;28;20050;-75
2023/12/21 00:16:32;;;;;;;4.82;4.35;;;;;;;;;;2064933;28;20649;-74
2023/12/21 00:17:51;;;;;;;7.65;4.35;;;;;;;;;;2058505;28;20031;-76
2023/12/21 00:19:10;;;;;;;5.72;4.15;;;;;;;;;;2062144;28;20030;-75
2023/12/21 00:20:29;;;;;;;4.80;4.13;;;;;;;;;;2062540;28;20137;-74
2023/12/21 00:21:48;;;;;;;5.40;3.72;;;;;;;;;;2063364;28;20034;-74
2023/12/21 00:23:07;;;;;;;4.97;4.45;;;;;;;;;;2062784;28;20384;-74
2023/12/21 00:24:26;;;;;;;8.10;4.32;;;;;;;;;;2061001;28;20483;-75
2023/12/21 00:25:45;;;;;;;4.43;4.03;;;;;;;;;;2063781;28;20054;-75
2023/12/21 00:27:04;;;;;;;6.70;4.60;;;;;;;;;;2060962;28;20507;-74
2023/12/21 00:28:23;;;;;;;5.22;4.63;;;;;;;;;;2068421;28;20030;-74
2023/12/21 00:29:42;;;;;;;4.55;4.07;;;;;;;;;;2072975;28;20041;-74
2023/12/21 00:31:02;;;;;;;6.13;4.35;;;;;;;;;;2070502;28;20021;-75
2023/12/21 00:32:21;;;;;;;5.65;3.70;;;;;;;;;;2078749;28;20108;-74
2023/12/21 00:33:40;;;;;;;6.47;4.13;;;;;;;;;;2074486;28;20026;-74
2023/12/21 00:34:59;;;;;;;7.57;4.47;;;;;;;;;;2076908;28;20339;-74
2023/12/21 00:36:18;;;;;;;5.20;4.68;;;;;;;;;;2075929;28;20045;-75
2023/12/21 00:37:37;;;;;;;6.47;3.42;;;;;;;;;;2080062;28;20064;-74
2023/12/21 00:38:56;;;;;;;7.13;3.88;;;;;;;;;;2074162;28;20022;-73
2023/12/21 00:40:16;;;;;;;7.75;4.00;;;;;;;;;;2066106;28;20033;-75
2023/12/21 00:41:35;;;;;;;5.13;3.30;;;;;;;;;;2068226;28;20030;-74
2023/12/21 00:42:54;;;;;;;4.47;3.28;;;;;;;;;;2077482;28;20112;-75
2023/12/21 00:44:13;;;;;;;5.18;3.80;;;;;;;;;;2080597;28;20029;-74
2023/12/21 00:45:32;;;;;;;3.60;3.30;;;;;;;;;;2080258;28;20029;-73
2023/12/21 00:46:51;;;;;;;4.57;2.90;;;;;;;;;;2072684;28;20026;-73
2023/12/21 00:48:09;;;;;;;3.70;3.40;;;;;;;;;;2077743;28;20029;-74
2023/12/21 00:49:29;;;;;;;5.65;3.08;;;;;;;;;;2078156;28;21128;-75
2023/12/21 00:50:47;;;;;;;6.35;3.00;;;;;;;;;;2073363;28;20033;-75
2023/12/21 00:52:06;;;;;;;3.28;2.72;;;;;;;;;;2075104;28;20033;-74
2023/12/21 00:53:25;;;;;;;3.83;3.17;;;;;;;;;;2069484;28;20026;-74
2023/12/21 00:54:44;;;;;;;2.88;2.30;;;;;;;;;;2071790;28;20030;-74
2023/12/21 00:56:03;;;;;;;3.58;3.10;;;;;;;;;;2077225;28;20668;-75
2023/12/21 00:57:23;;;;;;;3.00;2.38;;;;;;;;;;2080696;28;20038;-75
2023/12/21 00:58:41;;;;;;;5.50;2.60;;;;;;;;;;2079828;28;20049;-75
2023/12/21 01:00:01;;;;;;;5.13;2.90;;;;;;;;;;2071671;28;20742;-75
2023/12/21 01:01:20;;;;;;;4.85;3.17;;;;;;;;;;2069455;28;20182;-74
2023/12/21 01:02:39;;;;;;;3.47;3.08;;;;;;;;;;2076793;28;20026;-74
2023/12/21 01:03:58;;;;;;;4.63;3.08;;;;;;;;;;2074502;28;20515;-75
2023/12/21 01:05:17;;;;;;;3.35;3.00;;;;;;;;;;2068585;28;20045;-73
2023/12/21 01:06:36;;;;;;;3.65;3.22;;;;;;;;;;2078749;28;20038;-75
2023/12/21 01:07:55;;;;;;;3.28;2.97;;;;;;;;;;2079596;28;20122;-73
2023/12/21 01:09:14;;;;;;;3.53;3.17;;;;;;;;;;2077406;28;20124;-74
2023/12/21 01:10:33;;;;;;;3.38;3.05;;;;;;;;;;2077120;28;20025;-75
2023/12/21 01:11:52;;;;;;;3.13;2.90;;;;;;;;;;2076290;28;20029;-74
2023/12/21 01:13:11;;;;;;;3.92;3.53;;;;;;;;;;2080044;28;20057;-74
2023/12/21 01:14:31;;;;;;;5.45;3.53;;;;;;;;;;2080735;28;20022;-75
2023/12/21 01:15:49;;;;;;;4.30;3.05;;;;;;;;;;2081408;28;20025;-75
2023/12/21 01:17:08;;;;;;;3.28;2.97;;;;;;;;;;2079189;28;20033;-75
2023/12/21 01:18:27;;;;;;;3.80;3.45;;;;;;;;;;2074020;28;20026;-75
2023/12/21 01:19:46;;;;;;;3.17;2.92;;;;;;;;;;2078617;28;20026;-76
2023/12/21 01:21:05;;;;;;;3.42;3.22;;;;;;;;;;2072999;28;20041;-75
2023/12/21 01:22:23;;;;;;;3.22;2.95;;;;;;;;;;2065643;28;20018;-75
2023/12/21 01:23:42;;;;;;;3.40;3.10;;;;;;;;;;2075272;28;20026;-75
2023/12/21 01:25:01;;;;;;;2.75;2.55;;;;;;;;;;2075564;28;20938;-75
2023/12/21 01:26:20;;;;;;;3.00;2.80;;;;;;;;;;2071191;28;20423;-75
2023/12/21 01:27:39;;;;;;;3.33;3.03;;;;;;;;;;2076008;28;20029;-74
2023/12/21 01:28:58;;;;;;;3.50;3.15;;;;;;;;;;2081002;28;20057;-74
2023/12/21 01:30:17;;;;;;;3.85;2.85;;;;;;;;;;2078274;28;20041;-74
2023/12/21 01:31:36;;;;;;;5.82;3.22;;;;;;;;;;2079232;28;20447;-74
2023/12/21 01:32:55;;;;;;;3.90;3.60;;;;;;;;;;2079858;28;20398;-73
2023/12/21 01:34:14;;;;;;;3.53;3.22;;;;;;;;;;2076577;28;20025;-73
2023/12/21 01:35:33;;;;;;;3.78;3.30;;;;;;;;;;2070903;28;20030;-74
2023/12/21 01:36:52;;;;;;;3.75;2.40;;;;;;;;;;2075716;28;20038;-74
2023/12/21 01:38:11;;;;;;;2.75;2.55;;;;;;;;;;2071914;28;20519;-73
2023/12/21 01:39:31;;;;;;;3.88;3.53;;;;;;;;;;2077697;28;20052;-73
2023/12/21 01:40:50;;;;;;;3.40;3.10;;;;;;;;;;2080204;28;20056;-75
2023/12/21 01:42:09;;;;;;;5.20;3.30;;;;;;;;;;2078990;28;20037;-74
2023/12/21 01:43:28;;;;;;;3.20;3.00;;;;;;;;;;2078856;28;20021;-75
2023/12/21 01:44:47;;;;;;;3.78;3.45;;;;;;;;;;2079571;28;20406;-75
2023/12/21 01:46:06;;;;;;;4.47;3.45;;;;;;;;;;2072341;28;20453;-74
2023/12/21 01:47:24;;;;;;;3.30;2.72;;;;;;;;;;2068574;28;20030;-74
2023/12/21 01:48:44;;;;;;;4.20;3.80;;;;;;;;;;2064303;28;21073;-74
2023/12/21 01:50:04;;;;;;;4.43;4.03;;;;;;;;;;2070990;28;20033;-75
2023/12/21 01:51:23;;;;;;;4.68;4.38;;;;;;;;;;2073117;28;20025;-75
2023/12/21 01:52:43;;;;;;;5.25;4.20;;;;;;;;;;2078890;28;20029;-74
2023/12/21 01:54:03;;;;;;;5.55;4.38;;;;;;;;;;2078844;28;20156;-74
2023/12/21 01:55:22;;;;;;;4.82;4.30;;;;;;;;;;2070309;28;20605;-74
2023/12/21 01:56:42;;;;;;;7.07;4.40;;;;;;;;;;2077086;28;20021;-74
2023/12/21 01:58:01;;;;;;;4.22;3.83;;;;;;;;;;2074759;28;20018;-74
2023/12/21 01:59:20;;;;;;;4.68;4.28;;;;;;;;;;2075971;28;20021;-74
2023/12/21 02:00:39;;;;;;;4.40;4.07;;;;;;;;;;2077712;28;20029;-73
2023/12/21 02:01:58;;;;;;;4.15;3.85;;;;;;;;;;2079433;28;20044;-73
2023/12/21 02:03:17;;;;;;;3.72;3.40;;;;;;;;;;2077690;28;20523;-74
2023/12/21 02:04:36;;;;;;;3.95;3.58;;;;;;;;;;2080453;28;20037;-74
2023/12/21 02:05:55;;;;;;;3.53;3.22;;;;;;;;;;2077811;28;20121;-74
2023/12/21 02:07:14;;;;;;;3.95;3.42;;;;;;;;;;2072416;28;20026;-74
2023/12/21 02:08:34;;;;;;;4.88;4.22;;;;;;;;;;2073707;28;20033;-75
2023/12/21 02:09:53;;;;;;;4.57;4.13;;;;;;;;;;2070532;28;20025;-73
2023/12/21 02:11:12;;;;;;;4.60;4.20;;;;;;;;;;2074362;28;20017;-75
2023/12/21 02:12:31;;;;;;;3.83;3.53;;;;;;;;;;2079498;28;20025;-74
2023/12/21 02:13:50;;;;;;;4.00;3.70;;;;;;;;;;2072135;28;20026;-74
2023/12/21 02:15:10;;;;;;;4.82;4.43;;;;;;;;;;2076987;28;20025;-74
2023/12/21 02:16:35;;;;;;;4.97;4.50;;;;;;;;;;2076246;28;20030;-74
2023/12/21 02:17:55;;;;;;;7.07;5.50;;;;;;;;;;2070437;28;21539;-74
2023/12/21 02:19:15;;;;;;;5.45;5.05;;;;;;;;;;2074787;28;20034;-74
2023/12/21 02:20:35;;;;;;;5.38;4.93;;;;;;;;;;2075077;28;20038;-75
2023/12/21 02:21:56;;;;;;;5.30;4.90;;;;;;;;;;2078184;28;20033;-74
2023/12/21 02:23:16;;;;;;;6.13;5.53;;;;;;;;;;2079622;28;20475;-76
2023/12/21 02:24:35;;;;;;;5.13;4.72;;;;;;;;;;2077672;28;20025;-74
2023/12/21 02:25:54;;;;;;;4.78;4.47;;;;;;;;;;2078902;28;20498;-75
2023/12/21 02:27:13;;;;;;;3.15;2.83;;;;;;;;;;2074022;28;20037;-76
2023/12/21 02:28:32;;;;;;;4.28;3.97;;;;;;;;;;2067769;28;20519;-75
2023/12/21 02:29:51;;;;;;;4.18;3.88;;;;;;;;;;2075152;28;20487;-75
2023/12/21 02:31:10;;;;;;;4.35;3.97;;;;;;;;;;2072630;28;20495;-75
2023/12/21 02:32:29;;;;;;;5.65;5.15;;;;;;;;;;2077293;28;20034;-74
2023/12/21 02:33:48;;;;;;;6.05;5.53;;;;;;;;;;2072413;28;20026;-74
2023/12/21 02:35:07;;;;;;;4.82;4.43;;;;;;;;;;2069878;28;20026;-74
2023/12/21 02:36:26;;;;;;;5.60;5.10;;;;;;;;;;2074617;28;20029;-74
2023/12/21 02:37:45;;;;;;;4.60;4.20;;;;;;;;;;2075761;28;20466;-74
2023/12/21 02:39:04;;;;;;;5.25;4.85;;;;;;;;;;2075520;28;20478;-74
2023/12/21 02:40:23;;;;;;;5.60;5.20;;;;;;;;;;2078759;28;20021;-74
2023/12/21 02:41:42;;;;;;;5.70;5.20;;;;;;;;;;2078933;28;20025;-75
2023/12/21 02:43:01;;;;;;;5.05;4.65;;;;;;;;;;2074169;28;20061;-74
2023/12/21 02:44:20;;;;;;;4.43;4.13;;;;;;;;;;2073374;28;20093;-74
2023/12/21 02:45:39;;;;;;;5.43;4.93;;;;;;;;;;2067742;28;20077;-74
2023/12/21 02:46:58;;;;;;;4.60;4.20;;;;;;;;;;2075152;28;21024;-75
2023/12/21 02:48:17;;;;;;;4.13;3.83;;;;;;;;;;2073704;28;20041;-74
2023/12/21 02:49:36;;;;;;;4.30;4.00;;;;;;;;;;2074708;28;20471;-74
2023/12/21 02:50:54;;;;;;;4.22;3.75;;;;;;;;;;2074107;28;20057;-73
2023/12/21 02:52:13;;;;;;;3.40;3.20;;;;;;;;;;2074516;28;20029;-73
2023/12/21 02:53:32;;;;;;;3.60;3.30;;;;;;;;;;2073179;28;20029;-74
2023/12/21 02:54:51;;;;;;;3.50;3.30;;;;;;;;;;2075589;28;20022;-74
2023/12/21 02:56:10;;;;;;;3.50;3.30;;;;;;;;;;2070580;28;22729;-75
2023/12/21 02:57:29;;;;;;;3.50;3.30;;;;;;;;;;2077795;28;20026;-74
2023/12/21 02:58:48;;;;;;;3.10;2.90;;;;;;;;;;2077794;28;20100;-75
2023/12/21 03:00:08;;;;;;;3.78;3.47;;;;;;;;;;2079083;28;20486;-75
2023/12/21 03:01:27;;;;;;;3.95;3.65;;;;;;;;;;2073571;28;20535;-75
2023/12/21 03:02:46;;;;;;;3.75;3.33;;;;;;;;;;2075527;28;20061;-75
2023/12/21 03:04:05;;;;;;;3.30;3.10;;;;;;;;;;2074273;28;20159;-75
2023/12/21 03:05:24;;;;;;;3.60;3.40;;;;;;;;;;2075745;28;20026;-74
2023/12/21 03:06:43;;;;;;;3.42;3.22;;;;;;;;;;2074821;28;20033;-73
2023/12/21 03:08:03;;;;;;;3.80;3.50;;;;;;;;;;2070547;28;20061;-74
2023/12/21 03:09:22;;;;;;;4.18;3.78;;;;;;;;;;2070570;28;20030;-73
2023/12/21 03:10:41;;;;;;;3.90;3.60;;;;;;;;;;2075434;28;20025;-75
2023/12/21 03:12:00;;;;;;;4.03;3.72;;;;;;;;;;2078244;28;20583;-74
2023/12/21 03:13:19;;;;;;;4.20;3.90;;;;;;;;;;2078264;28;20018;-74
2023/12/21 03:14:38;;;;;;;4.07;3.70;;;;;;;;;;2079980;28;20060;-74
2023/12/21 03:15:56;;;;;;;4.40;4.10;;;;;;;;;;2079148;28;20053;-74
2023/12/21 03:17:15;;;;;;;3.60;3.40;;;;;;;;;;2079351;28;20022;-74
2023/12/21 03:18:35;;;;;;;4.00;3.70;;;;;;;;;;2078847;28;20018;-74
2023/12/21 03:19:54;;;;;;;5.65;4.03;;;;;;;;;;2078628;28;20025;-74
2023/12/21 03:21:15;;;;;;;4.30;4.00;;;;;;;;;;2074069;28;20022;-74
2023/12/21 03:22:37;;;;;;;4.25;3.95;;;;;;;;;;2079439;28;20029;-74
2023/12/21 03:23:56;;;;;;;5.13;4.47;;;;;;;;;;2079874;28;20029;-75
2023/12/21 03:25:15;;;;;;;4.10;3.80;;;;;;;;;;2076295;28;20248;-74
2023/12/21 03:26:34;;;;;;;3.83;3.47;;;;;;;;;;2081461;28;20021;-76
2023/12/21 03:27:53;;;;;;;4.70;4.30;;;;;;;;;;2084666;28;20021;-75
2023/12/21 03:29:12;;;;;;;4.75;4.05;;;;;;;;;;2087285;28;20602;-76
2023/12/21 03:30:31;;;;;;;3.13;2.92;;;;;;;;;;2089740;28;20034;-76
2023/12/21 03:31:52;;;;;;;3.25;3.00;;;;;;;;;;2087966;28;20029;-75
2023/12/21 03:33:11;;;;;;;3.00;2.80;;;;;;;;;;2080680;28;20030;-74
2023/12/21 03:34:30;;;;;;;3.45;3.15;;;;;;;;;;2076550;28;20041;-74
2023/12/21 03:35:49;;;;;;;3.20;3.00;;;;;;;;;;2079442;28;20029;-73
2023/12/21 03:37:09;;;;;;;3.05;2.85;;;;;;;;;;2082528;28;20391;-75
2023/12/21 03:38:28;;;;;;;3.55;3.25;;;;;;;;;;2089899;28;20278;-76
2023/12/21 03:39:47;;;;;;;3.67;2.80;;;;;;;;;;2089738;28;20129;-76
2023/12/21 03:41:06;;;;;;;3.22;2.90;;;;;;;;;;2090889;28;20037;-75
2023/12/21 03:42:25;;;;;;;2.53;2.33;;;;;;;;;;2089820;28;20033;-74
2023/12/21 03:43:44;;;;;;;3.20;2.90;;;;;;;;;;2085444;28;20026;-74
2023/12/21 03:45:03;;;;;;;3.00;2.80;;;;;;;;;;2079240;28;20045;-74
2023/12/21 03:46:22;;;;;;;2.70;2.50;;;;;;;;;;2073214;28;20037;-74
2023/12/21 03:47:41;;;;;;;2.53;2.40;;;;;;;;;;2079506;28;20045;-74
2023/12/21 03:49:00;;;;;;;2.78;2.58;;;;;;;;;;2080542;28;20049;-76
2023/12/21 03:50:19;;;;;;;3.00;2.80;;;;;;;;;;2082485;28;20041;-74
2023/12/21 03:51:38;;;;;;;2.65;1.85;;;;;;;;;;2082647;28;20030;-73
2023/12/21 03:52:57;;;;;;;2.53;2.33;;;;;;;;;;2079494;28;20033;-74
2023/12/21 03:54:16;;;;;;;1.45;1.35;;;;;;;;;;2078618;28;20033;-74
2023/12/21 03:55:36;;;;;;;2.50;2.30;;;;;;;;;;2080195;28;20018;-74
2023/12/21 03:56:55;;;;;;;2.42;2.22;;;;;;;;;;2075576;28;20021;-75
2023/12/21 03:58:14;;;;;;;2.63;2.22;;;;;;;;;;2074489;28;20026;-74
2023/12/21 03:59:34;;;;;;;2.75;2.60;;;;;;;;;;2079556;28;20033;-74
2023/12/21 04:00:53;;;;;;;2.10;1.90;;;;;;;;;;2079357;28;20022;-74
2023/12/21 04:02:12;;;;;;;2.60;2.40;;;;;;;;;;2071375;28;20030;-75
2023/12/21 04:03:31;;;;;;;2.17;1.98;;;;;;;;;;2072078;28;20515;-74
2023/12/21 04:04:50;;;;;;;2.10;2.00;;;;;;;;;;2076971;28;20490;-75
2023/12/21 04:06:09;;;;;;;2.65;1.92;;;;;;;;;;2080639;28;20030;-74
2023/12/21 04:07:28;;;;;;;2.08;1.70;;;;;;;;;;2074606;28;20030;-74
2023/12/21 04:08:46;;;;;;;2.33;2.22;;;;;;;;;;2073211;28;20041;-74
2023/12/21 04:10:06;;;;;;;2.55;2.35;;;;;;;;;;2078249;28;20390;-75
2023/12/21 04:11:24;;;;;;;3.03;2.50;;;;;;;;;;2073630;28;20042;-74
2023/12/21 04:12:43;;;;;;;3.15;2.50;;;;;;;;;;2077808;28;20471;-74
2023/12/21 04:14:02;;;;;;;2.97;2.75;;;;;;;;;;2079795;28;20479;-74
2023/12/21 04:15:21;;;;;;;3.08;2.88;;;;;;;;;;2079388;28;20038;-76
2023/12/21 04:16:40;;;;;;;3.20;3.00;;;;;;;;;;2080207;28;20029;-75
2023/12/21 04:17:59;;;;;;;5.15;2.80;;;;;;;;;;2068838;28;20026;-74
2023/12/21 04:19:18;;;;;;;3.90;2.60;;;;;;;;;;2073246;28;20382;-74
2023/12/21 04:20:37;;;;;;;3.28;2.95;;;;;;;;;;2078435;28;20030;-74
2023/12/21 04:21:56;;;;;;;2.55;2.35;;;;;;;;;;2074121;28;20676;-75
2023/12/21 04:23:15;;;;;;;3.10;2.90;;;;;;;;;;2075833;28;20029;-75
2023/12/21 04:24:34;;;;;;;3.35;2.63;;;;;;;;;;2079048;28;20379;-74
2023/12/21 04:25:53;;;;;;;2.65;2.45;;;;;;;;;;2081032;28;20128;-75
2023/12/21 04:27:13;;;;;;;3.10;2.80;;;;;;;;;;2073570;28;20026;-75
2023/12/21 04:28:32;;;;;;;4.35;2.95;;;;;;;;;;2070799;28;20511;-74
2023/12/21 04:29:52;;;;;;;5.05;2.55;;;;;;;;;;2074641;28;20029;-75
2023/12/21 04:31:16;;;;;;;2.25;2.03;;;;;;;;;;2073377;28;20434;-75
2023/12/21 04:32:35;;;;;;;4.60;2.60;;;;;;;;;;2076450;28;20021;-75
2023/12/21 04:33:54;;;;;;;2.80;2.60;;;;;;;;;;2081645;28;20037;-74
2023/12/21 04:35:13;;;;;;;2.42;2.20;;;;;;;;;;2079973;28;20022;-75
2023/12/21 04:36:32;;;;;;;2.50;2.30;;;;;;;;;;2076803;28;20025;-74
2023/12/21 04:37:51;;;;;;;2.80;2.25;;;;;;;;;;2079710;28;20148;-73
2023/12/21 04:39:10;;;;;;;2.63;2.42;;;;;;;;;;2078186;28;20092;-74
2023/12/21 04:40:29;;;;;;;4.45;2.47;;;;;;;;;;2075938;28;20050;-75
2023/12/21 04:41:48;;;;;;;2.60;2.40;;;;;;;;;;2077838;28;20025;-74
2023/12/21 04:43:07;;;;;;;2.60;2.40;;;;;;;;;;2079831;28;20025;-74
2023/12/21 04:44:26;;;;;;;3.88;2.90;;;;;;;;;;2076043;28;20152;-74
2023/12/21 04:45:45;;;;;;;3.03;2.72;;;;;;;;;;2065873;28;20121;-75
2023/12/21 04:47:08;;;;;;;2.50;2.30;;;;;;;;;;2073460;28;20486;-74
2023/12/21 04:48:27;;;;;;;2.30;2.10;;;;;;;;;;2076429;28;20415;-73
2023/12/21 04:49:46;;;;;;;2.55;2.35;;;;;;;;;;2071341;28;20502;-75
2023/12/21 04:51:05;;;;;;;2.53;2.00;;;;;;;;;;2077461;28;20115;-75
2023/12/21 04:52:24;;;;;;;3.33;2.30;;;;;;;;;;2079503;28;20112;-73
2023/12/21 04:53:44;;;;;;;2.70;2.50;;;;;;;;;;2074114;28;20042;-74
2023/12/21 04:55:03;;;;;;;2.75;2.30;;;;;;;;;;2075285;28;20030;-74
2023/12/21 04:56:22;;;;;;;3.05;2.50;;;;;;;;;;2078162;28;20483;-73
2023/12/21 04:57:41;;;;;;;2.95;2.38;;;;;;;;;;2077633;28;20026;-73
2023/12/21 04:59:00;;;;;;;2.85;2.47;;;;;;;;;;2081004;28;20025;-73
2023/12/21 05:00:19;;;;;;;3.95;2.45;;;;;;;;;;2076485;28;20537;-73
2023/12/21 05:01:38;;;;;;;2.85;2.65;;;;;;;;;;2077295;28;20434;-74
2023/12/21 05:02:57;;;;;;;2.38;2.13;;;;;;;;;;2079420;28;20475;-73
2023/12/21 05:04:16;;;;;;;2.80;2.42;;;;;;;;;;2078948;28;20037;-73
2023/12/21 05:05:35;;;;;;;3.03;2.50;;;;;;;;;;2077302;28;20033;-73
2023/12/21 05:06:54;;;;;;;3.42;2.33;;;;;;;;;;2078016;28;20033;-75
2023/12/21 05:08:13;;;;;;;2.38;2.17;;;;;;;;;;2080958;28;20026;-73
2023/12/21 05:09:32;;;;;;;2.90;2.58;;;;;;;;;;2081044;28;20053;-74
2023/12/21 05:10:51;;;;;;;2.10;2.00;;;;;;;;;;2071762;28;20593;-74
2023/12/21 05:12:10;;;;;;;2.80;2.60;;;;;;;;;;2070915;28;20120;-73
2023/12/21 05:13:29;;;;;;;2.97;2.78;;;;;;;;;;2076751;28;20022;-74
2023/12/21 05:14:48;;;;;;;3.50;2.65;;;;;;;;;;2080435;28;20064;-73
2023/12/21 05:16:07;;;;;;;2.60;2.40;;;;;;;;;;2074479;28;20026;-73
2023/12/21 05:17:26;;;;;;;3.72;2.78;;;;;;;;;;2078410;28;20021;-74
2023/12/21 05:18:47;;;;;;;5.78;2.40;;;;;;;;;;2080254;28;20026;-73
2023/12/21 05:20:07;;;;;;;3.85;2.45;;;;;;;;;;2079574;28;20030;-74
2023/12/21 05:21:26;;;;;;;3.33;3.00;;;;;;;;;;2076099;28;20037;-75
2023/12/21 05:22:45;;;;;;;2.95;2.65;;;;;;;;;;2079186;28;20033;-75
2023/12/21 05:24:04;;;;;;;2.88;2.67;;;;;;;;;;2080790;28;20029;-73
2023/12/21 05:25:24;;;;;;;2.70;2.40;;;;;;;;;;2079890;28;20033;-74
2023/12/21 05:26:43;;;;;;;2.70;2.50;;;;;;;;;;2074063;28;20034;-73
2023/12/21 05:28:02;;;;;;;2.80;2.60;;;;;;;;;;2069096;28;20030;-75
2023/12/21 05:29:21;;;;;;;2.17;2.08;;;;;;;;;;2076173;28;20116;-74
2023/12/21 05:30:40;;;;;;;2.28;2.17;;;;;;;;;;2078472;28;20034;-74
2023/12/21 05:31:59;;;;;;;3.33;1.77;;;;;;;;;;2079318;28;20037;-75
2023/12/21 05:33:18;;;;;;;2.60;2.30;;;;;;;;;;2080270;28;20108;-72
2023/12/21 05:34:37;;;;;;;2.45;2.25;;;;;;;;;;2072869;28;20026;-73
2023/12/21 05:35:55;;;;;;;2.42;2.22;;;;;;;;;;2075078;28;20042;-76
2023/12/21 05:37:14;;;;;;;4.68;2.10;;;;;;;;;;2079145;28;20033;-73
2023/12/21 05:38:34;;;;;;;2.70;2.10;;;;;;;;;;2070007;28;20354;-74
2023/12/21 05:39:53;;;;;;;2.30;2.08;;;;;;;;;;2071729;28;20018;-74
2023/12/21 05:41:12;;;;;;;3.28;2.60;;;;;;;;;;2075794;28;20021;-72
2023/12/21 05:42:31;;;;;;;2.15;2.05;;;;;;;;;;2080002;28;20021;-72
2023/12/21 05:43:50;;;;;;;2.67;2.15;;;;;;;;;;2071351;28;20117;-74
2023/12/21 05:45:09;;;;;;;2.75;2.17;;;;;;;;;;2067135;28;20681;-73
2023/12/21 05:46:28;;;;;;;3.05;2.50;;;;;;;;;;2076415;28;20030;-73
2023/12/21 05:47:47;;;;;;;3.40;1.90;;;;;;;;;;2073228;28;20112;-74
2023/12/21 05:49:06;;;;;;;2.28;1.73;;;;;;;;;;2077702;28;20034;-74
2023/12/21 05:50:25;;;;;;;2.28;1.98;;;;;;;;;;2072513;28;20030;-73
2023/12/21 05:51:48;;;;;;;2.42;2.08;;;;;;;;;;2071178;28;20025;-71
2023/12/21 05:53:07;;;;;;;1.95;1.85;;;;;;;;;;2076810;28;20339;-72
2023/12/21 05:54:27;;;;;;;1.98;1.77;;;;;;;;;;2079798;28;20029;-72
2023/12/21 05:55:46;;;;;;;2.55;2.35;;;;;;;;;;2079956;28;20026;-73
2023/12/21 05:57:05;;;;;;;2.25;1.98;;;;;;;;;;2078356;28;20060;-73
2023/12/21 05:58:24;;;;;;;1.90;1.80;;;;;;;;;;2079897;28;20037;-72
2023/12/21 05:59:43;;;;;;;3.28;1.98;;;;;;;;;;2077952;28;20022;-73
2023/12/21 06:01:01;;;;;;;2.47;1.90;;;;;;;;;;2074172;28;20494;-72
2023/12/21 06:02:20;;;;;;;2.00;1.88;;;;;;;;;;2056143;28;20597;-71
2023/12/21 06:03:40;;;;;;;2.00;1.80;;;;;;;;;;2071232;28;20494;-74
2023/12/21 06:04:59;;;;;;;2.40;1.90;;;;;;;;;;2079990;28;20057;-73
2023/12/21 06:06:18;;;;;;;2.00;1.85;;;;;;;;;;2080318;28;20612;-72
2023/12/21 06:07:37;;;;;;;1.98;1.88;;;;;;;;;;2074332;28;20037;-73
2023/12/21 06:08:56;;;;;;;2.50;1.80;;;;;;;;;;2071803;28;20037;-74
2023/12/21 06:10:15;;;;;;;2.25;2.05;;;;;;;;;;2073169;28;20045;-72
2023/12/21 06:11:35;;;;;;;2.03;1.73;;;;;;;;;;2076976;28;20471;-74
2023/12/21 06:12:54;;;;;;;2.42;1.70;;;;;;;;;;2077630;28;20116;-75
2023/12/21 06:14:13;;;;;;;1.70;1.60;;;;;;;;;;2070237;28;20014;-73
2023/12/21 06:15:32;;;;;;;1.73;1.63;;;;;;;;;;2078058;28;20041;-77
2023/12/21 06:16:50;;;;;;;3.08;1.80;;;;;;;;;;2080455;28;20061;-74
2023/12/21 06:18:09;;;;;;;2.47;1.67;;;;;;;;;;2071680;28;20030;-74
2023/12/21 06:19:28;;;;;;;1.65;1.55;;;;;;;;;;2069520;28;20026;-74
2023/12/21 06:20:47;;;;;;;14.27;8.57;;;;;;;;;;2076340;28;20033;-76
2023/12/21 06:22:06;;;;;;;3.17;2.88;;;;;;;;;;2071135;28;20034;-75
2023/12/21 06:23:25;;;;;;;8.15;5.43;;;;;;;;;;2078151;28;20029;-74
2023/12/21 06:24:44;;;;;;;2.85;2.30;;;;;;;;;;2079690;28;20029;-75
2023/12/21 06:26:04;;;;;;;2.92;2.47;;;;;;;;;;2078147;28;20100;-74
2023/12/21 06:27:23;;;;;;;2.63;2.42;;;;;;;;;;2078495;28;20471;-74
2023/12/21 06:28:42;;;;;;;2.47;2.28;;;;;;;;;;2077605;28;20510;-75
2023/12/21 06:30:01;;;;;;;2.20;2.00;;;;;;;;;;2072137;28;20026;-74
2023/12/21 06:31:19;;;;;;;2.60;1.90;;;;;;;;;;2076227;28;20017;-74
2023/12/21 06:32:39;;;;;;;1.90;1.80;;;;;;;;;;2078496;28;20668;-73
2023/12/21 06:33:59;;;;;;;2.38;1.40;;;;;;;;;;2071833;28;20042;-74
2023/12/21 06:35:18;;;;;;;2.45;2.25;;;;;;;;;;2077362;28;20390;-74
2023/12/21 06:36:37;;;;;;;2.33;2.13;;;;;;;;;;2078554;28;20400;-73
2023/12/21 06:37:57;;;;;;;2.85;2.20;;;;;;;;;;2078159;28;20033;-73
2023/12/21 06:39:16;;;;;;;2.05;1.90;;;;;;;;;;2077665;28;20022;-73
2023/12/21 06:40:35;;;;;;;2.30;1.88;;;;;;;;;;2075560;28;20033;-74
2023/12/21 06:41:54;;;;;;;2.25;1.70;;;;;;;;;;2079121;28;20026;-74
2023/12/21 06:43:13;;;;;;;1.75;1.65;;;;;;;;;;2076964;28;20428;-72
2023/12/21 06:44:33;;;;;;;2.10;2.00;;;;;;;;;;2078396;28;20037;-76
2023/12/21 06:45:52;;;;;;;1.85;1.75;;;;;;;;;;2078314;28;20033;-73
2023/12/21 06:47:11;;;;;;;2.25;2.08;;;;;;;;;;2071336;28;20116;-73
2023/12/21 06:48:29;;;;;;;3.33;2.05;;;;;;;;;;2075020;28;20160;-73
2023/12/21 06:49:48;;;;;;;2.30;2.10;;;;;;;;;;2076035;28;20387;-73
2023/12/21 06:51:08;;;;;;;1.90;1.80;;;;;;;;;;2072163;28;20038;-73
2023/12/21 06:52:27;;;;;;;2.30;2.10;;;;;;;;;;2073794;28;20124;-73
2023/12/21 06:53:46;;;;;;;2.40;2.30;;;;;;;;;;2077362;28;20029;-73
2023/12/21 06:55:05;;;;;;;2.70;2.40;;;;;;;;;;2076960;28;20017;-74
2023/12/21 06:56:24;;;;;;;2.28;2.08;;;;;;;;;;2071128;28;20037;-74
2023/12/21 06:57:43;;;;;;;2.67;2.13;;;;;;;;;;2077116;28;20100;-74
2023/12/21 06:59:04;;;;;;;2.50;2.30;;;;;;;;;;2072612;28;20069;-75
2023/12/21 07:00:23;;;;;;;2.83;2.63;;;;;;;;;;2078227;28;20486;-74
2023/12/21 07:01:42;;;;;;;2.40;2.20;;;;;;;;;;2072321;28;20026;-74
2023/12/21 07:03:01;;;;;;;2.97;2.55;;;;;;;;;;2075773;28;20041;-73
2023/12/21 07:04:20;;;;;;;4.82;3.33;;;;;;;;;;2080980;28;20025;-72
2023/12/21 07:05:39;;;;;;;6.25;4.45;;;;;;;;;;2081541;28;20034;-76
2023/12/21 07:06:58;;;;;;;5.97;4.05;;;;;;;;;;2089129;28;20073;-73
2023/12/21 07:08:17;;;;;;;4.10;3.42;;;;;;;;;;2091744;28;20041;-74
2023/12/21 07:09:36;;;;;;;3.08;2.70;;;;;;;;;;2081976;28;20045;-76
2023/12/21 07:10:56;;;;;;;3.45;3.15;;;;;;;;;;2087847;28;20029;-76
2023/12/21 07:12:15;;;;;;;5.47;3.00;;;;;;;;;;2086374;28;20829;-73
2023/12/21 07:13:34;;;;;;;3.03;2.83;;;;;;;;;;2086486;28;20010;-76
2023/12/21 07:14:54;;;;;;;3.22;2.50;;;;;;;;;;2084910;28;20037;-77
2023/12/21 07:16:13;;;;;;;3.78;2.45;;;;;;;;;;2085441;28;20037;-73
2023/12/21 07:17:32;;;;;;;3.15;2.40;;;;;;;;;;2089457;28;20021;-73
2023/12/21 07:18:51;;;;;;;3.40;2.22;;;;;;;;;;2090561;28;20041;-73
2023/12/21 07:20:10;;;;;;;3.95;2.22;;;;;;;;;;2089711;28;20025;-74
2023/12/21 07:21:29;;;;;;;4.32;2.50;;;;;;;;;;2089173;28;20033;-73
2023/12/21 07:22:48;;;;;;;2.55;2.35;;;;;;;;;;2085465;28;20029;-74
2023/12/21 07:24:07;;;;;;;2.45;2.35;;;;;;;;;;2088880;28;20041;-73
2023/12/21 07:25:26;;;;;;;3.00;2.80;;;;;;;;;;2085303;28;20025;-73
2023/12/21 07:26:45;;;;;;;2.75;2.55;;;;;;;;;;2084554;28;20452;-74
2023/12/21 07:28:04;;;;;;;3.50;3.25;;;;;;;;;;2083777;28;20038;-74
2023/12/21 07:29:23;;;;;;;4.63;3.40;;;;;;;;;;2081363;28;20046;-73
2023/12/21 07:30:42;;;;;;;3.85;3.50;;;;;;;;;;2080803;28;20112;-73
2023/12/21 07:32:01;;;;;;;5.60;3.90;;;;;;;;;;2075103;28;20030;-75
2023/12/21 07:33:20;;;;;;;6.53;4.25;;;;;;;;;;2078953;28;21165;-73
2023/12/21 07:34:39;;;;;;;6.13;4.93;;;;;;;;;;2076814;28;20029;-73
2023/12/21 07:35:58;;;;;;;6.10;5.57;;;;;;;;;;2078311;28;20524;-73
2023/12/21 07:37:17;;;;;;;6.47;5.53;;;;;;;;;;2078469;28;20033;-73
2023/12/21 07:38:40;;;;;;;6.22;5.70;;;;;;;;;;2079535;28;20029;-74
2023/12/21 07:39:59;;;;;;;6.80;5.75;;;;;;;;;;2080742;28;20026;-76
2023/12/21 07:41:18;;;;;;;5.18;4.85;;;;;;;;;;2075971;28;20022;-74
2023/12/21 07:42:38;;;;;;;5.88;5.22;;;;;;;;;;2077662;28;20029;-73
2023/12/21 07:43:57;;;;;;;4.70;4.30;;;;;;;;;;2079006;28;20243;-73
2023/12/21 07:45:16;;;;;;;4.85;4.50;;;;;;;;;;2073872;28;20037;-74
2023/12/21 07:46:35;;;;;;;5.22;4.82;;;;;;;;;;2078346;28;20025;-73
2023/12/21 07:47:54;;;;;;;6.38;4.80;;;;;;;;;;2079911;28;20025;-74
2023/12/21 07:49:13;;;;;;;5.47;4.78;;;;;;;;;;2080561;28;20471;-74
2023/12/21 07:50:32;;;;;;;7.13;5.35;;;;;;;;;;2075578;28;20037;-75
2023/12/21 07:51:51;;;;;;;4.25;3.78;;;;;;;;;;2073086;28;20026;-73
2023/12/21 07:53:09;;;;;;;5.65;4.47;;;;;;;;;;2075557;28;20041;-73
2023/12/21 07:54:28;;;;;;;3.67;3.38;;;;;;;;;;2080447;28;20053;-74